Time;durP1;ratioP1;P1;durP2;ratioP2;P2;SDS_P1;SDS_P2;PMS_P1;PMS_P2;Temp;Humidity;BMP_temperature;BMP_pressure;BME280_temperature;BME280_humidity;BME280_pressure;Samples;Min_cycle;Max_cycle;Signal;HPM_P1;HPM_P2
2022/01/21 00:00:13;;;;;;;3.70;1.57;;;4.90;59.00;;;;;;5012752;28;20026;-83
2022/01/21 00:02:39;;;;;;;7.63;2.77;;;4.60;59.40;;;;;;4995536;28;20022;-83
2022/01/21 00:05:06;;;;;;;5.17;2.13;;;4.50;59.90;;;;;;4995347;28;20377;-83
2022/01/21 00:07:32;;;;;;;3.93;1.50;;;4.40;60.50;;;;;;4995597;28;20113;-83
2022/01/21 00:09:58;;;;;;;5.93;1.93;;;4.30;60.60;;;;;;4995478;28;20052;-83
2022/01/21 00:12:25;;;;;;;3.73;1.80;;;4.30;60.90;;;;;;4994530;28;20026;-84
2022/01/21 00:14:50;;;;;;;3.13;1.57;;;4.30;60.80;;;;;;4983267;28;20026;-83
2022/01/21 00:17:18;;;;;;;4.57;1.80;;;4.50;61.30;;;;;;5003300;28;20030;-83
2022/01/21 00:19:47;;;;;;;5.50;2.10;;;4.50;60.70;;;;;;4990739;28;20563;-83
2022/01/21 00:30:26;;;;;;;3.53;1.77;;;4.40;60.60;;;;;;4997776;28;20034;-83
2022/01/21 00:32:52;;;;;;;5.20;1.73;;;4.30;60.20;;;;;;4995093;28;20381;-83
2022/01/21 00:35:20;;;;;;;3.33;1.93;;;4.20;60.80;;;;;;4995045;28;20052;-83
2022/01/21 00:37:47;;;;;;;6.57;2.67;;;4.20;61.00;;;;;;5016944;28;20026;-83
2022/01/21 00:40:19;;;;;;;4.90;2.33;;;4.10;61.20;;;;;;4994889;28;20401;-83
2022/01/21 00:43:09;;;;;;;7.67;2.63;;;4.10;61.50;;;;;;4994814;28;20029;-82
2022/01/21 00:45:35;;;;;;;9.47;2.23;;;4.10;61.70;;;;;;4969852;28;20503;-83
2022/01/21 00:48:00;;;;;;;4.50;1.83;;;4.10;61.80;;;;;;4994869;28;20041;-83
2022/01/21 00:50:26;;;;;;;6.33;2.27;;;4.10;62.00;;;;;;4997687;28;20397;-83
2022/01/21 00:52:52;;;;;;;6.07;2.50;;;4.00;62.00;;;;;;5012438;28;20026;-83
2022/01/21 00:55:18;;;;;;;7.33;2.23;;;4.10;62.00;;;;;;5006482;28;20113;-82
2022/01/21 00:57:44;;;;;;;4.30;2.37;;;4.10;61.80;;;;;;4999311;28;20026;-83
2022/01/21 01:00:11;;;;;;;4.33;2.20;;;4.10;61.60;;;;;;5012677;28;20447;-83
2022/01/21 01:02:37;;;;;;;6.73;2.53;;;4.00;61.80;;;;;;4994936;28;20109;-82
2022/01/21 01:05:04;;;;;;;7.17;3.00;;;4.00;62.20;;;;;;5011822;28;20026;-82
2022/01/21 01:07:30;;;;;;;8.63;2.93;;;4.00;62.30;;;;;;4994832;28;20026;-83
2022/01/21 01:09:57;;;;;;;4.50;2.33;;;4.00;62.50;;;;;;4994605;28;20129;-83
2022/01/21 01:12:49;;;;;;;7.40;2.27;;;4.10;62.60;;;;;;5012303;28;20088;-83
2022/01/21 01:19:56;;;;;;;7.67;2.60;;;4.20;63.10;;;;;;5012407;28;20037;-83
2022/01/21 01:20:50;;;;;;;6.97;2.83;;;4.00;63.10;;;;;;5010861;28;20754;-84
2022/01/21 01:23:29;;;;;;;5.87;2.90;;;4.00;63.10;;;;;;4994586;28;20026;-83
2022/01/21 01:28:40;;;;;;;6.70;3.17;;;3.90;63.20;;;;;;5012390;28;20037;-84
2022/01/21 01:31:06;;;;;;;7.33;3.30;;;3.90;63.30;;;;;;4994563;28;20061;-83
2022/01/21 01:33:38;;;;;;;5.67;3.83;;;3.90;63.50;;;;;;4994676;28;20045;-83
2022/01/21 01:36:06;;;;;;;8.20;3.50;;;3.90;63.50;;;;;;4994634;28;20021;-83
2022/01/21 01:41:05;;;;;;;10.17;3.60;;;4.00;63.70;;;;;;4996504;28;20053;-83
2022/01/21 01:51:28;;;;;;;6.13;3.53;;;3.90;64.20;;;;;;5004324;28;20037;-83
2022/01/21 01:54:17;;;;;;;7.80;4.10;;;3.90;64.20;;;;;;5015416;28;20025;-83
2022/01/21 01:56:51;;;;;;;8.10;3.77;;;4.00;64.40;;;;;;4997548;28;20026;-83
2022/01/21 01:59:17;;;;;;;10.27;4.93;;;4.00;64.40;;;;;;4997501;28;20441;-83
2022/01/21 02:01:51;;;;;;;9.87;4.90;;;4.00;64.40;;;;;;4987125;28;20101;-83
2022/01/21 02:04:17;;;;;;;10.93;4.27;;;3.90;64.60;;;;;;4996046;28;20021;-84
2022/01/21 02:06:42;;;;;;;9.80;5.10;;;3.80;64.80;;;;;;4997408;28;20032;-83
2022/01/21 02:09:08;;;;;;;11.97;5.10;;;3.80;65.10;;;;;;4997334;28;20489;-84
2022/01/21 02:11:34;;;;;;;12.23;5.13;;;3.80;65.20;;;;;;4997714;28;20456;-83
2022/01/21 02:14:02;;;;;;;11.83;5.23;;;3.80;65.30;;;;;;4992725;28;20393;-84
2022/01/21 02:21:42;;;;;;;8.23;4.33;;;3.80;65.50;;;;;;5015153;28;20040;-83
2022/01/21 02:24:22;;;;;;;7.60;4.30;;;3.80;65.40;;;;;;5006152;28;20432;-83
2022/01/21 02:26:50;;;;;;;12.50;5.20;;;3.80;65.50;;;;;;5008014;28;20506;-83
2022/01/21 02:29:27;;;;;;;7.97;4.50;;;3.80;65.60;;;;;;5006184;28;20384;-83
2022/01/21 02:31:54;;;;;;;9.63;5.00;;;3.80;65.70;;;;;;4997199;28;20088;-83
2022/01/21 02:34:20;;;;;;;8.53;4.90;;;3.80;65.70;;;;;;5014605;28;20112;-83
2022/01/21 02:36:46;;;;;;;8.83;4.33;;;3.90;65.80;;;;;;4998628;28;20136;-84
2022/01/21 02:39:12;;;;;;;11.77;5.30;;;3.90;65.70;;;;;;5011860;28;20030;-84
2022/01/21 02:41:37;;;;;;;8.77;4.90;;;3.80;65.90;;;;;;4996782;28;20386;-83
2022/01/21 02:44:03;;;;;;;15.87;7.70;;;3.90;66.10;;;;;;4996547;28;20124;-84
2022/01/21 02:46:29;;;;;;;8.13;4.80;;;3.90;66.00;;;;;;4996497;28;20033;-83
2022/01/21 02:48:56;;;;;;;7.83;4.87;;;3.90;66.00;;;;;;5014198;28;20417;-83
2022/01/21 02:51:22;;;;;;;9.67;5.03;;;3.90;66.20;;;;;;5013678;28;20029;-84
2022/01/21 02:56:19;;;;;;;8.23;4.80;;;3.80;66.40;;;;;;5014731;28;20026;-83
2022/01/21 02:58:46;;;;;;;7.27;4.70;;;3.80;66.40;;;;;;4995857;28;20026;-83
2022/01/21 03:01:14;;;;;;;11.77;5.90;;;3.70;66.20;;;;;;4993494;28;20034;-83
2022/01/21 03:03:41;;;;;;;10.57;5.00;;;3.60;66.60;;;;;;5013826;28;20101;-83
2022/01/21 03:06:07;;;;;;;9.03;4.63;;;3.60;66.80;;;;;;5013749;28;20099;-83
2022/01/21 03:08:33;;;;;;;10.87;6.23;;;3.60;66.70;;;;;;4995974;28;20065;-83
2022/01/21 03:10:59;;;;;;;9.87;5.13;;;3.70;67.00;;;;;;4996059;28;20033;-83
2022/01/21 03:13:24;;;;;;;9.33;5.47;;;4.00;67.60;;;;;;5004919;28;20033;-83
2022/01/21 03:15:52;;;;;;;12.70;6.70;;;4.00;66.70;;;;;;4988600;28;20055;-83
2022/01/21 03:18:18;;;;;;;7.73;4.93;;;3.80;66.80;;;;;;4992976;28;20038;-83
2022/01/21 03:20:44;;;;;;;6.83;4.10;;;3.70;66.80;;;;;;4992522;28;20026;-83
2022/01/21 03:23:15;;;;;;;9.90;4.03;;;3.70;67.00;;;;;;4993770;28;20023;-83
2022/01/21 03:25:44;;;;;;;8.27;4.20;;;3.60;67.10;;;;;;4974095;28;20034;-83
2022/01/21 03:28:10;;;;;;;11.37;4.47;;;3.70;67.10;;;;;;4975275;28;20433;-83
2022/01/21 03:30:36;;;;;;;8.87;4.67;;;3.70;66.90;;;;;;4986670;28;20058;-83
2022/01/21 03:33:02;;;;;;;7.97;4.10;;;3.70;66.90;;;;;;4992826;28;20093;-83
2022/01/21 03:35:28;;;;;;;9.23;4.43;;;3.70;67.00;;;;;;4992678;28;20037;-83
2022/01/21 03:37:54;;;;;;;8.00;4.30;;;3.80;67.10;;;;;;4992180;28;20121;-83
2022/01/21 03:40:21;;;;;;;8.13;3.67;;;3.80;66.90;;;;;;4992119;28;20492;-83
2022/01/21 03:42:46;;;;;;;8.93;3.63;;;3.80;66.90;;;;;;4992579;28;20037;-83
2022/01/21 03:45:13;;;;;;;7.33;3.60;;;3.80;66.80;;;;;;4993472;28;20035;-82
2022/01/21 03:47:40;;;;;;;7.87;4.23;;;3.70;66.70;;;;;;4993738;28;20350;-83
2022/01/21 03:50:29;;;;;;;12.83;4.53;;;3.80;66.70;;;;;;4991902;28;20034;-83
2022/01/21 03:52:55;;;;;;;9.20;3.77;;;3.80;66.80;;;;;;4992004;28;20112;-83
2022/01/21 03:55:21;;;;;;;9.93;3.67;;;3.80;66.60;;;;;;4992499;28;20038;-83
2022/01/21 03:57:47;;;;;;;6.87;3.33;;;3.70;66.70;;;;;;4992229;28;20039;-83
2022/01/21 04:00:17;;;;;;;10.43;4.37;;;3.70;66.60;;;;;;4993454;28;20064;-83
2022/01/21 04:02:43;;;;;;;9.30;3.50;;;3.80;66.70;;;;;;5006219;28;20022;-83
2022/01/21 04:05:09;;;;;;;9.03;4.17;;;3.80;66.60;;;;;;4991123;28;20045;-82
2022/01/21 04:07:36;;;;;;;10.20;4.60;;;3.80;66.60;;;;;;4993385;28;20386;-82
2022/01/21 04:10:03;;;;;;;12.13;5.03;;;3.80;66.50;;;;;;4975629;28;20031;-82
2022/01/21 04:12:28;;;;;;;9.90;4.63;;;3.80;66.60;;;;;;4993249;28;20041;-83
2022/01/21 04:14:56;;;;;;;9.57;4.63;;;3.80;66.70;;;;;;4993182;28;20470;-82
2022/01/21 04:17:23;;;;;;;9.03;5.00;;;3.80;66.80;;;;;;4995359;28;20046;-82
2022/01/21 04:19:49;;;;;;;6.90;4.50;;;3.80;67.00;;;;;;5012545;28;20030;-82
2022/01/21 04:22:14;;;;;;;5.60;3.57;;;3.70;66.90;;;;;;5013173;28;20033;-82
2022/01/21 04:24:44;;;;;;;6.43;3.40;;;3.80;67.00;;;;;;5012705;28;20045;-82
2022/01/21 04:27:09;;;;;;;6.97;3.90;;;3.70;66.80;;;;;;4987595;28;20496;-80
2022/01/21 04:29:35;;;;;;;9.47;3.70;;;3.70;66.80;;;;;;4995462;28;20034;-81
2022/01/21 04:32:01;;;;;;;7.37;3.10;;;3.70;66.80;;;;;;4979089;28;20562;-82
2022/01/21 04:34:26;;;;;;;7.87;3.50;;;3.70;66.80;;;;;;5012418;28;20041;-82
2022/01/21 04:36:52;;;;;;;7.63;3.27;;;3.70;66.70;;;;;;4994697;28;20044;-81
2022/01/21 04:39:25;;;;;;;5.40;2.87;;;3.70;66.70;;;;;;4978542;28;20040;-82
2022/01/21 04:47:17;;;;;;;8.70;2.83;;;3.60;66.60;;;;;;5012785;28;20404;-82
2022/01/21 04:49:43;;;;;;;4.73;2.53;;;3.60;66.40;;;;;;4994611;28;20026;-82
2022/01/21 04:52:09;;;;;;;4.67;3.00;;;3.60;66.60;;;;;;5007409;28;20394;-82
2022/01/21 04:54:36;;;;;;;9.97;3.53;;;3.60;66.70;;;;;;4993206;28;20044;-82
2022/01/21 04:57:03;;;;;;;7.63;4.47;;;3.60;66.60;;;;;;4975704;28;20077;-82
2022/01/21 04:59:30;;;;;;;5.40;2.60;;;3.60;66.60;;;;;;4986985;28;20088;-82
2022/01/21 05:01:56;;;;;;;7.77;3.00;;;3.60;66.60;;;;;;5012198;28;20026;-82
2022/01/21 05:04:22;;;;;;;8.90;2.13;;;3.60;66.50;;;;;;4994430;28;20029;-82
2022/01/21 05:06:50;;;;;;;5.80;1.87;;;3.60;66.60;;;;;;5012103;28;20112;-82
2022/01/21 05:09:17;;;;;;;3.27;2.00;;;3.60;66.20;;;;;;4996100;28;20038;-82
2022/01/21 05:11:44;;;;;;;7.87;2.33;;;3.50;67.00;;;;;;4994553;28;20115;-82
2022/01/21 05:14:17;;;;;;;9.33;2.97;;;3.80;67.20;;;;;;4991455;28;20488;-82
2022/01/21 05:16:48;;;;;;;5.18;2.30;;;4.00;66.80;;;;;;4994902;28;20499;-82
2022/01/21 05:19:16;;;;;;;6.53;2.40;;;3.90;66.20;;;;;;5007223;28;20397;-82
2022/01/21 05:21:47;;;;;;;8.33;3.07;;;3.80;66.30;;;;;;4998415;28;20032;-83
2022/01/21 05:24:16;;;;;;;6.17;2.60;;;3.90;66.90;;;;;;4997658;28;20092;-82
2022/01/21 05:26:52;;;;;;;7.57;2.83;;;3.80;66.20;;;;;;5007280;28;20037;-82
2022/01/21 05:29:19;;;;;;;6.80;3.40;;;3.60;66.00;;;;;;5000812;28;20481;-82
2022/01/21 05:31:45;;;;;;;9.20;3.10;;;3.50;66.30;;;;;;5002612;28;20029;-82
2022/01/21 05:34:11;;;;;;;11.30;2.77;;;3.50;66.60;;;;;;4995931;28;20026;-82
2022/01/21 05:36:40;;;;;;;8.93;2.43;;;3.50;66.70;;;;;;5005904;28;20503;-82
2022/01/21 05:39:07;;;;;;;6.43;2.30;;;3.50;67.00;;;;;;5000586;28;20036;-82
2022/01/21 05:41:32;;;;;;;5.03;2.33;;;3.60;66.80;;;;;;4997993;28;20026;-82
2022/01/21 05:44:02;;;;;;;5.70;3.23;;;3.60;66.30;;;;;;4998028;28;20034;-82
2022/01/21 05:48:57;;;;;;;11.20;3.87;;;3.50;65.90;;;;;;5014325;28;20026;-82
2022/01/21 05:51:23;;;;;;;11.73;3.60;;;3.50;65.90;;;;;;4996457;28;20088;-82
2022/01/21 05:53:49;;;;;;;15.67;5.23;;;3.40;66.00;;;;;;4998131;28;20041;-82
2022/01/21 05:56:14;;;;;;;15.00;4.70;;;3.40;66.30;;;;;;4997759;28;20025;-82
2022/01/21 05:58:40;;;;;;;10.90;3.40;;;3.30;66.60;;;;;;4995758;28;20146;-82
2022/01/21 06:01:06;;;;;;;10.80;3.80;;;3.30;66.80;;;;;;4982136;28;20026;-82
2022/01/21 06:03:33;;;;;;;9.67;3.73;;;3.20;66.90;;;;;;5010783;28;20120;-82
2022/01/21 06:05:59;;;;;;;9.80;3.50;;;3.20;67.10;;;;;;5001088;28;20125;-82
2022/01/21 06:08:25;;;;;;;12.23;3.80;;;3.10;67.10;;;;;;4997451;28;20026;-82
2022/01/21 06:10:50;;;;;;;13.13;3.90;;;3.00;67.40;;;;;;4996966;28;20028;-82
2022/01/21 06:13:18;;;;;;;6.97;3.30;;;3.00;67.70;;;;;;4997232;28;20076;-82
2022/01/21 06:15:45;;;;;;;8.37;3.47;;;3.10;67.80;;;;;;5007044;28;20037;-82
2022/01/21 06:18:11;;;;;;;8.00;3.13;;;3.00;67.70;;;;;;5003346;28;20038;-82
2022/01/21 06:20:38;;;;;;;8.70;3.37;;;3.00;67.90;;;;;;4997042;28;20370;-82
2022/01/21 06:23:04;;;;;;;8.03;1.83;;;3.00;67.80;;;;;;4998357;28;20073;-82
2022/01/21 06:25:30;;;;;;;9.83;3.00;;;3.00;67.70;;;;;;5009861;28;20481;-82
2022/01/21 06:27:56;;;;;;;7.57;3.33;;;3.00;67.70;;;;;;4995437;28;20030;-82
2022/01/21 06:30:22;;;;;;;9.77;3.20;;;3.00;67.60;;;;;;4980502;28;20580;-82
2022/01/21 06:32:48;;;;;;;9.90;3.00;;;3.00;67.50;;;;;;4997283;28;20030;-82
2022/01/21 06:35:14;;;;;;;6.77;3.03;;;3.00;67.50;;;;;;5014146;28;20036;-82
2022/01/21 06:37:40;;;;;;;6.10;3.03;;;3.00;67.30;;;;;;4997160;28;20657;-82
2022/01/21 06:40:07;;;;;;;6.90;3.00;;;3.00;67.10;;;;;;4996361;28;20152;-82
2022/01/21 06:42:33;;;;;;;6.67;3.90;;;3.10;67.10;;;;;;5010906;28;20021;-82
2022/01/21 06:45:00;;;;;;;7.20;3.50;;;3.10;67.00;;;;;;4996731;28;20476;-82
2022/01/21 06:47:29;;;;;;;11.47;3.10;;;3.10;66.90;;;;;;5004302;28;20451;-82
2022/01/21 06:49:58;;;;;;;7.07;3.27;;;3.10;66.70;;;;;;4996698;28;20387;-82
2022/01/21 06:52:28;;;;;;;6.83;2.87;;;3.10;66.70;;;;;;4996637;28;20041;-82
2022/01/21 06:54:54;;;;;;;7.43;2.93;;;3.10;66.70;;;;;;4987794;28;20026;-82
2022/01/21 06:57:20;;;;;;;8.93;3.83;;;3.20;66.80;;;;;;5007614;28;20049;-82
2022/01/21 06:59:45;;;;;;;11.23;5.80;;;3.20;66.90;;;;;;5000212;28;20046;-82
2022/01/21 07:02:11;;;;;;;10.00;4.87;;;3.20;66.90;;;;;;5011273;28;20480;-82
2022/01/21 07:04:37;;;;;;;16.33;4.77;;;3.20;66.90;;;;;;5012066;28;20109;-82
2022/01/21 07:07:04;;;;;;;11.00;2.90;;;3.20;66.80;;;;;;4997346;28;20429;-82
2022/01/21 07:09:30;;;;;;;5.47;2.00;;;3.20;66.60;;;;;;4996259;28;20451;-82
2022/01/21 07:11:58;;;;;;;14.03;3.00;;;3.20;66.60;;;;;;5013454;28;20025;-82
2022/01/21 07:14:24;;;;;;;8.27;1.77;;;3.10;66.40;;;;;;5002278;28;20036;-82
2022/01/21 07:16:50;;;;;;;3.57;1.10;;;3.10;66.90;;;;;;4995922;28;20500;-82
2022/01/21 07:19:16;;;;;;;3.40;1.00;;;3.10;66.00;;;;;;4996101;28;20087;-82
2022/01/21 07:21:42;;;;;;;4.80;1.60;;;3.10;65.60;;;;;;4996073;28;20033;-82
2022/01/21 07:24:08;;;;;;;2.90;1.20;;;3.00;65.10;;;;;;5013681;28;20022;-82
2022/01/21 07:26:34;;;;;;;3.57;1.30;;;3.00;64.80;;;;;;5004319;28;20030;-82
2022/01/21 07:29:01;;;;;;;4.20;1.70;;;3.00;64.90;;;;;;4983356;28;20092;-82
2022/01/21 07:31:26;;;;;;;10.47;2.17;;;3.00;64.80;;;;;;4995718;28;20049;-82
2022/01/21 07:33:52;;;;;;;8.77;3.63;;;3.10;64.90;;;;;;4993533;28;20022;-82
2022/01/21 07:36:18;;;;;;;9.47;3.90;;;3.10;64.90;;;;;;4995830;28;20358;-82
2022/01/21 07:38:44;;;;;;;4.90;2.13;;;3.10;65.10;;;;;;4995600;28;20145;-82
2022/01/21 07:41:10;;;;;;;4.37;2.07;;;3.30;65.20;;;;;;4990450;28;20053;-82
2022/01/21 07:43:35;;;;;;;10.83;2.10;;;3.30;65.10;;;;;;5009977;28;20380;-82
2022/01/21 07:46:01;;;;;;;9.40;2.40;;;3.30;64.90;;;;;;4985935;28;20026;-82
2022/01/21 07:48:29;;;;;;;7.43;2.27;;;3.20;65.10;;;;;;4988369;28;20026;-82
2022/01/21 07:50:54;;;;;;;4.47;2.60;;;3.20;65.10;;;;;;4991890;28;21446;-82
2022/01/21 07:53:20;;;;;;;8.03;2.47;;;3.20;65.00;;;;;;4989744;28;20060;-82
2022/01/21 07:55:50;;;;;;;7.87;2.70;;;3.20;65.10;;;;;;4999541;28;20512;-82
2022/01/21 07:58:17;;;;;;;6.80;3.27;;;3.20;65.10;;;;;;4995207;28;20045;-82
2022/01/21 08:00:43;;;;;;;7.10;2.00;;;3.30;65.00;;;;;;4995407;28;20033;-82
2022/01/21 08:03:09;;;;;;;4.07;2.13;;;3.30;64.90;;;;;;4994212;28;20057;-82
2022/01/21 08:05:35;;;;;;;8.97;3.70;;;3.40;64.60;;;;;;5002797;28;20496;-82
2022/01/21 08:08:02;;;;;;;9.60;3.27;;;3.40;64.30;;;;;;4995457;28;20026;-82
2022/01/21 08:10:28;;;;;;;10.80;4.50;;;3.40;64.30;;;;;;5008413;28;20030;-82
2022/01/21 08:12:54;;;;;;;22.40;8.93;;;3.50;64.50;;;;;;4994937;28;20030;-82
2022/01/21 08:15:20;;;;;;;16.80;7.40;;;3.50;64.40;;;;;;4991287;28;20050;-82
2022/01/21 08:17:45;;;;;;;12.23;5.87;;;3.50;64.70;;;;;;4991815;28;20101;-82
2022/01/21 08:20:11;;;;;;;11.73;5.63;;;3.50;64.80;;;;;;4991678;28;20030;-82
2022/01/21 08:22:37;;;;;;;7.57;3.73;;;3.50;64.80;;;;;;4991253;28;20022;-82
2022/01/21 08:25:04;;;;;;;10.83;3.70;;;3.50;64.60;;;;;;4988275;28;20394;-82
2022/01/21 08:27:30;;;;;;;13.97;4.63;;;3.50;64.40;;;;;;4985898;28;20053;-82
2022/01/21 08:29:56;;;;;;;14.07;4.17;;;3.60;64.40;;;;;;4991993;28;20551;-82
2022/01/21 08:32:23;;;;;;;12.53;3.87;;;3.60;64.60;;;;;;4993020;28;20045;-82
2022/01/21 08:34:49;;;;;;;7.07;3.97;;;3.70;64.50;;;;;;4991721;28;20448;-82
2022/01/21 08:37:16;;;;;;;7.93;3.20;;;3.80;64.70;;;;;;4992956;28;20105;-82
2022/01/21 08:39:43;;;;;;;9.97;3.03;;;3.80;64.50;;;;;;4989785;28;20026;-82
2022/01/21 08:42:10;;;;;;;9.60;2.60;;;3.90;64.50;;;;;;4984950;28;20030;-82
2022/01/21 08:44:36;;;;;;;10.17;2.60;;;3.90;64.50;;;;;;4991904;28;20023;-82
2022/01/21 08:47:02;;;;;;;11.00;3.20;;;4.10;64.20;;;;;;4979160;28;20555;-82
2022/01/21 08:49:28;;;;;;;12.10;2.80;;;4.10;64.00;;;;;;4987268;28;20026;-83
2022/01/21 08:51:56;;;;;;;11.77;2.97;;;4.00;63.80;;;;;;4994692;28;20393;-82
2022/01/21 08:54:23;;;;;;;9.77;2.63;;;4.20;63.80;;;;;;4995694;28;20034;-82
2022/01/21 08:56:51;;;;;;;15.47;5.63;;;4.20;63.50;;;;;;4995550;28;20057;-82
2022/01/21 08:59:18;;;;;;;10.80;3.20;;;4.30;63.40;;;;;;4995597;28;20087;-83
2022/01/21 09:01:45;;;;;;;15.70;4.50;;;4.30;63.30;;;;;;4994527;28;20113;-82
2022/01/21 09:04:10;;;;;;;14.87;3.33;;;4.30;62.70;;;;;;4979169;28;20588;-83
2022/01/21 09:06:36;;;;;;;9.47;3.10;;;4.30;62.80;;;;;;4984597;28;20026;-82
2022/01/21 09:09:04;;;;;;;13.47;3.20;;;4.30;62.60;;;;;;5005003;28;20160;-82
2022/01/21 09:11:30;;;;;;;6.37;2.60;;;4.30;62.50;;;;;;4996039;28;20033;-83
2022/01/21 09:13:57;;;;;;;7.47;3.13;;;4.30;62.30;;;;;;4995436;28;20022;-82
2022/01/21 09:16:23;;;;;;;8.60;2.83;;;4.30;62.10;;;;;;4994988;28;20056;-82
2022/01/21 09:18:59;;;;;;;9.07;2.57;;;4.40;62.10;;;;;;4991811;28;20046;-82
2022/01/21 09:21:27;;;;;;;7.27;3.40;;;4.40;61.90;;;;;;4985555;28;20035;-82
2022/01/21 09:23:55;;;;;;;8.03;3.70;;;4.50;61.80;;;;;;4975492;28;20482;-82
2022/01/21 09:26:23;;;;;;;9.77;3.17;;;4.50;61.70;;;;;;4993202;28;20034;-83
2022/01/21 09:28:50;;;;;;;6.43;2.17;;;4.60;61.50;;;;;;4975481;28;20393;-82
2022/01/21 09:31:17;;;;;;;5.60;1.97;;;4.50;61.20;;;;;;4986658;28;20027;-82
2022/01/21 09:33:43;;;;;;;9.03;2.10;;;4.60;61.20;;;;;;4977291;28;20031;-82
2022/01/21 09:36:15;;;;;;;8.13;2.40;;;4.70;60.90;;;;;;4975531;28;20059;-82
2022/01/21 09:38:41;;;;;;;8.95;2.85;;;4.60;60.50;;;;;;4977394;28;20111;-82
2022/01/21 09:41:09;;;;;;;8.90;3.47;;;4.60;60.70;;;;;;4992313;28;20568;-83
2022/01/21 09:43:37;;;;;;;11.90;3.40;;;4.60;60.70;;;;;;4994947;28;20077;-82
2022/01/21 09:46:07;;;;;;;7.07;3.30;;;4.60;60.90;;;;;;4992953;28;20030;-81
2022/01/21 09:48:50;;;;;;;8.70;3.30;;;4.60;61.00;;;;;;4994912;28;20022;-81
2022/01/21 09:51:16;;;;;;;8.63;2.93;;;4.70;61.10;;;;;;4994679;28;20030;-82
2022/01/21 09:53:42;;;;;;;11.27;3.23;;;4.60;60.80;;;;;;4990154;28;20489;-82
2022/01/21 09:56:09;;;;;;;11.13;3.57;;;4.60;61.10;;;;;;4993885;28;20041;-82
2022/01/21 09:58:34;;;;;;;12.33;3.87;;;4.60;61.30;;;;;;4994873;28;20026;-82
2022/01/21 10:01:05;;;;;;;10.80;3.93;;;4.60;61.40;;;;;;4993538;28;20108;-82
2022/01/21 10:03:32;;;;;;;11.67;5.00;;;4.60;61.40;;;;;;4994366;28;20042;-82
2022/01/21 10:05:58;;;;;;;16.10;5.73;;;4.70;61.50;;;;;;4986000;28;20015;-82
2022/01/21 10:08:25;;;;;;;13.97;6.10;;;4.80;61.50;;;;;;4994483;28;20548;-82
2022/01/21 10:10:51;;;;;;;13.57;6.20;;;4.80;61.60;;;;;;4995351;28;20450;-82
2022/01/21 10:13:19;;;;;;;13.37;5.77;;;4.80;61.80;;;;;;4990913;28;20030;-82
2022/01/21 10:15:47;;;;;;;21.40;5.33;;;4.90;61.90;;;;;;5004627;28;20045;-82
2022/01/21 10:18:17;;;;;;;16.07;4.47;;;4.90;61.90;;;;;;4986245;28;20174;-82
2022/01/21 10:21:03;;;;;;;8.20;4.07;;;4.90;61.90;;;;;;4987731;28;20333;-82
2022/01/21 10:23:30;;;;;;;12.57;4.50;;;4.90;61.80;;;;;;4998212;28;20435;-82
2022/01/21 10:26:06;;;;;;;13.93;5.23;;;4.90;61.80;;;;;;4997086;28;20033;-82
2022/01/21 10:28:33;;;;;;;12.60;4.43;;;5.00;61.90;;;;;;4991762;28;20161;-82
2022/01/21 10:31:07;;;;;;;14.07;5.07;;;5.00;62.00;;;;;;5004290;28;20559;-82
2022/01/21 10:33:59;;;;;;;9.37;4.37;;;5.20;61.90;;;;;;4993436;28;20026;-82
2022/01/21 10:36:28;;;;;;;11.57;3.80;;;5.40;61.60;;;;;;4995150;28;20033;-82
2022/01/21 10:39:09;;;;;;;11.60;4.10;;;5.40;61.10;;;;;;4977568;28;20057;-82
2022/01/21 10:41:38;;;;;;;11.90;4.00;;;5.40;61.00;;;;;;4993658;28;20057;-82
2022/01/21 10:44:08;;;;;;;11.43;3.83;;;5.40;61.10;;;;;;4980703;28;20075;-82
2022/01/21 10:46:34;;;;;;;13.07;4.03;;;5.40;60.90;;;;;;5002724;28;20075;-82
2022/01/21 10:49:09;;;;;;;12.23;4.07;;;5.30;60.80;;;;;;5008518;28;20088;-82
2022/01/21 10:51:40;;;;;;;15.10;3.43;;;5.30;60.70;;;;;;4996370;28;20423;-82
2022/01/21 10:54:34;;;;;;;10.33;3.17;;;5.50;60.80;;;;;;4990284;28;20394;-83
2022/01/21 10:57:18;;;;;;;10.57;3.53;;;5.80;60.70;;;;;;4995793;28;20029;-83
2022/01/21 10:59:48;;;;;;;11.80;3.23;;;6.30;60.10;;;;;;4998609;28;20496;-83
2022/01/21 11:02:25;;;;;;;12.90;3.10;;;6.40;59.50;;;;;;5014316;28;20026;-83
2022/01/21 11:04:52;;;;;;;7.50;3.23;;;6.20;59.10;;;;;;4996751;28;20025;-83
2022/01/21 11:07:55;;;;;;;8.27;3.03;;;6.40;59.20;;;;;;4976651;28;20022;-83
2022/01/21 11:10:34;;;;;;;7.60;2.88;;;6.80;58.70;;;;;;4977000;28;20117;-83
2022/01/21 11:13:03;;;;;;;11.27;3.63;;;6.90;58.10;;;;;;4990553;28;20045;-83
2022/01/21 11:15:39;;;;;;;10.10;3.63;;;7.00;58.10;;;;;;4990465;28;20042;-83
2022/01/21 11:18:07;;;;;;;15.43;4.43;;;7.00;57.60;;;;;;4974449;28;20182;-83
2022/01/21 11:20:37;;;;;;;9.03;4.40;;;6.80;57.40;;;;;;4992227;28;20033;-83
2022/01/21 11:23:05;;;;;;;13.63;5.20;;;6.70;57.40;;;;;;4987943;28;20034;-83
2022/01/21 11:26:04;;;;;;;17.23;6.93;;;6.50;57.40;;;;;;4994118;28;20488;-82
2022/01/21 11:28:39;;;;;;;14.90;5.10;;;6.40;57.30;;;;;;4990796;28;20105;-82
2022/01/21 11:31:06;;;;;;;14.07;3.80;;;6.40;57.50;;;;;;4993064;28;20034;-82
2022/01/21 11:33:32;;;;;;;7.77;3.50;;;6.30;57.30;;;;;;4994143;28;20031;-83
2022/01/21 11:35:58;;;;;;;10.63;3.60;;;6.30;57.20;;;;;;4992707;28;20392;-83
2022/01/21 11:38:27;;;;;;;8.03;2.70;;;6.40;57.60;;;;;;4992784;28;20026;-83
2022/01/21 11:40:54;;;;;;;17.73;3.27;;;6.40;56.60;;;;;;5006179;28;20036;-83
2022/01/21 11:43:21;;;;;;;7.87;3.20;;;6.40;56.40;;;;;;5013719;28;20018;-82
2022/01/21 11:48:50;;;;;;;11.00;2.93;;;6.40;56.30;;;;;;4994311;28;20018;-82
2022/01/21 11:51:40;;;;;;;7.40;3.17;;;6.40;56.10;;;;;;4992643;28;20370;-82
2022/01/21 11:54:10;;;;;;;9.43;2.80;;;6.30;56.00;;;;;;4993766;28;20033;-82
2022/01/21 11:56:46;;;;;;;7.77;1.80;;;6.30;56.10;;;;;;4992778;28;20502;-83
2022/01/21 11:59:32;;;;;;;12.03;2.40;;;6.40;55.40;;;;;;4986498;28;20097;-83
2022/01/21 12:02:21;;;;;;;9.87;2.03;;;6.40;54.80;;;;;;4982585;28;20042;-83
2022/01/21 12:04:52;;;;;;;6.93;2.73;;;6.40;54.50;;;;;;4975995;28;20022;-83
2022/01/21 12:07:44;;;;;;;6.47;2.27;;;6.50;54.60;;;;;;4993092;28;20023;-83
2022/01/21 12:10:22;;;;;;;10.77;4.23;;;6.50;53.70;;;;;;4984554;28;20039;-83
2022/01/21 12:13:14;;;;;;;18.43;7.70;;;6.40;53.50;;;;;;4981534;28;20030;-83
2022/01/21 12:20:49;;;;;;;8.35;2.30;;;6.70;52.10;;;;;;5012292;28;20696;-83
2022/01/21 12:23:18;;;;;;;8.07;2.13;;;6.60;51.70;;;;;;4993181;28;20515;-83
2022/01/21 12:26:08;;;;;;;7.93;1.90;;;6.60;51.60;;;;;;5012697;28;20448;-85
2022/01/21 12:28:35;;;;;;;8.50;2.00;;;6.60;51.20;;;;;;5000836;28;20026;-84
2022/01/21 12:31:01;;;;;;;3.67;1.53;;;6.60;51.40;;;;;;4988484;28;20033;-85
2022/01/21 12:33:54;;;;;;;8.27;2.47;;;6.60;51.20;;;;;;4994713;28;20034;-84
2022/01/21 12:36:23;;;;;;;7.40;2.63;;;6.60;50.70;;;;;;4994903;28;20117;-84
2022/01/21 12:41:16;;;;;;;13.07;7.30;;;6.50;50.90;;;;;;5008540;28;20104;-84
2022/01/21 12:43:46;;;;;;;17.17;7.40;;;6.50;50.80;;;;;;4995169;28;20125;-85
2022/01/21 12:46:18;;;;;;;11.13;3.30;;;6.50;50.70;;;;;;4982921;28;20064;-84
2022/01/21 12:48:46;;;;;;;5.57;2.13;;;6.50;50.70;;;;;;4994436;28;20408;-84
2022/01/21 12:51:18;;;;;;;7.07;1.40;;;6.50;50.60;;;;;;4992969;28;20049;-84
2022/01/21 12:56:42;;;;;;;6.20;1.93;;;6.50;50.00;;;;;;5011886;28;20037;-84
2022/01/21 12:59:14;;;;;;;7.73;2.80;;;6.50;50.10;;;;;;4994824;28;20061;-84
2022/01/21 13:01:39;;;;;;;4.83;2.17;;;6.50;49.90;;;;;;5012805;28;20477;-84
2022/01/21 13:04:15;;;;;;;8.47;3.80;;;6.50;49.60;;;;;;4979461;28;20026;-84
2022/01/21 13:06:52;;;;;;;4.00;1.60;;;6.40;49.10;;;;;;4975831;28;20023;-84
2022/01/21 13:09:23;;;;;;;5.40;1.73;;;6.40;49.20;;;;;;4975829;28;20022;-84
2022/01/21 13:11:56;;;;;;;6.30;2.03;;;6.40;49.30;;;;;;4981634;28;20029;-84
2022/01/21 13:17:02;;;;;;;7.00;1.77;;;6.50;49.10;;;;;;5005950;28;20081;-84
2022/01/21 13:19:52;;;;;;;3.07;1.30;;;6.50;48.90;;;;;;4994208;28;20034;-84
2022/01/21 13:22:29;;;;;;;5.97;1.20;;;6.50;48.60;;;;;;4986840;28;20077;-84
2022/01/21 13:25:15;;;;;;;2.93;1.30;;;6.50;48.40;;;;;;5009657;28;20089;-84
2022/01/21 13:27:50;;;;;;;2.87;1.07;;;6.60;48.10;;;;;;4978132;28;20037;-84
2022/01/21 13:30:19;;;;;;;3.77;0.93;;;6.60;47.90;;;;;;5012512;28;20022;-84
2022/01/21 13:32:45;;;;;;;5.17;1.83;;;6.60;47.70;;;;;;4994868;28;20026;-84
2022/01/21 13:35:18;;;;;;;3.33;0.73;;;6.70;47.50;;;;;;4994520;28;20149;-84
2022/01/21 13:38:03;;;;;;;4.47;1.10;;;6.60;46.90;;;;;;4996532;28;20381;-84
2022/01/21 13:40:33;;;;;;;4.30;2.07;;;6.60;46.30;;;;;;4996665;28;20139;-83
2022/01/21 13:43:16;;;;;;;2.93;0.70;;;6.60;46.50;;;;;;5010604;28;20026;-84
2022/01/21 13:45:53;;;;;;;5.20;0.73;;;6.50;45.80;;;;;;4996314;28;20026;-84
2022/01/21 13:48:19;;;;;;;4.20;1.00;;;6.40;45.90;;;;;;4986121;28;20037;-84
2022/01/21 13:50:47;;;;;;;3.47;0.77;;;6.30;45.80;;;;;;4986146;28;20061;-84
2022/01/21 13:53:13;;;;;;;2.60;0.90;;;6.20;45.80;;;;;;4993908;28;20061;-84
2022/01/21 13:55:44;;;;;;;2.03;0.60;;;6.30;45.70;;;;;;5012803;28;20026;-84
2022/01/21 13:58:16;;;;;;;2.43;0.70;;;6.20;45.40;;;;;;4996531;28;20084;-84